Time;durP1;ratioP1;P1;durP2;ratioP2;P2;SDS_P1;SDS_P2;PMS_P1;PMS_P2;Temp;Humidity;BMP_temperature;BMP_pressure;BME280_temperature;BME280_humidity;BME280_pressure;Samples;Min_cycle;Max_cycle;Signal;HPM_P1;HPM_P2
2022/04/03 00:01:58;;;;;;;3.38;1.30;;;2.20;99.90;;;;;;4990673;28;20038;-80
2022/04/03 00:04:24;;;;;;;2.22;1.27;;;2.50;99.90;;;;;;4957825;28;20060;-79
2022/04/03 00:06:50;;;;;;;3.72;1.30;;;3.00;99.90;;;;;;5007649;28;20143;-78
2022/04/03 00:09:16;;;;;;;2.30;1.45;;;1.60;99.90;;;;;;5004462;28;20080;-79
2022/04/03 00:11:42;;;;;;;1.98;1.30;;;2.60;99.90;;;;;;4958457;28;20050;-79
2022/04/03 00:14:08;;;;;;;2.25;1.20;;;1.80;99.90;;;;;;5006028;28;20084;-78
2022/04/03 00:16:35;;;;;;;2.28;1.13;;;1.50;99.90;;;;;;4989139;28;20054;-78
2022/04/03 00:19:01;;;;;;;2.28;1.20;;;1.70;99.90;;;;;;5004595;28;20129;-78
2022/04/03 00:21:26;;;;;;;1.85;1.23;;;1.60;99.90;;;;;;5006245;28;20061;-77
2022/04/03 00:23:53;;;;;;;4.07;1.40;;;1.40;99.90;;;;;;5006099;28;20042;-77
2022/04/03 00:26:19;;;;;;;2.38;1.30;;;1.40;99.90;;;;;;4990419;28;20042;-78
2022/04/03 00:28:44;;;;;;;1.90;1.13;;;1.40;99.90;;;;;;5006617;28;20049;-77
2022/04/03 00:31:12;;;;;;;2.92;1.20;;;1.30;99.90;;;;;;4990153;28;20558;-79
2022/04/03 00:33:38;;;;;;;2.15;1.15;;;2.70;99.90;;;;;;4989042;28;20049;-79
2022/04/03 00:36:04;;;;;;;2.05;1.10;;;1.30;99.90;;;;;;4973754;28;20040;-78
2022/04/03 00:38:30;;;;;;;1.90;1.17;;;1.20;99.90;;;;;;5005635;28;20081;-78
2022/04/03 00:40:57;;;;;;;2.30;1.10;;;1.20;99.90;;;;;;5005668;28;20111;-79
2022/04/03 00:43:23;;;;;;;3.97;1.30;;;1.90;99.90;;;;;;4985553;28;20763;-80
2022/04/03 00:45:49;;;;;;;2.83;1.48;;;2.40;99.90;;;;;;4982758;28;20068;-78
2022/04/03 00:48:15;;;;;;;2.15;1.38;;;2.60;99.90;;;;;;5008734;28;20049;-79
2022/04/03 00:50:42;;;;;;;2.97;1.20;;;1.30;99.90;;;;;;5001306;28;20090;-79
2022/04/03 00:53:08;;;;;;;4.07;1.35;;;1.00;99.90;;;;;;4978480;28;20057;-78
2022/04/03 00:55:34;;;;;;;1.90;1.20;;;1.50;99.90;;;;;;5001737;28;20045;-78
2022/04/03 00:58:00;;;;;;;3.30;1.77;;;2.10;99.90;;;;;;4971324;28;20077;-78
2022/04/03 01:00:26;;;;;;;4.28;1.95;;;0.90;99.90;;;;;;5009755;28;20050;-79
2022/04/03 01:02:52;;;;;;;2.75;1.65;;;0.80;99.90;;;;;;4994032;28;20662;-78
2022/04/03 01:05:18;;;;;;;1.90;1.27;;;1.80;99.90;;;;;;5008152;28;20053;-78
2022/04/03 01:07:44;;;;;;;5.75;1.92;;;1.70;99.90;;;;;;5008510;28;20049;-78
2022/04/03 01:10:10;;;;;;;1.95;1.10;;;2.40;99.90;;;;;;4994971;28;20184;-78
2022/04/03 01:12:40;;;;;;;1.95;1.13;;;0.70;99.90;;;;;;4992650;28;20097;-78
2022/04/03 01:15:06;;;;;;;2.25;1.42;;;0.90;99.90;;;;;;4992520;28;20062;-78
2022/04/03 01:17:32;;;;;;;3.60;1.50;;;0.70;99.90;;;;;;4975164;28;20050;-78
2022/04/03 01:19:57;;;;;;;3.40;1.40;;;0.70;99.90;;;;;;5000812;28;20049;-78
2022/04/03 01:22:23;;;;;;;3.20;1.40;;;0.70;99.90;;;;;;5025658;28;20566;-78
2022/04/03 01:24:56;;;;;;;3.83;1.50;;;1.60;99.90;;;;;;5010572;28;20049;-78
2022/04/03 01:27:21;;;;;;;1.77;1.10;;;2.30;99.90;;;;;;5006848;28;20038;-79
2022/04/03 01:29:49;;;;;;;1.83;1.00;;;0.70;99.90;;;;;;5008270;28;20048;-78
2022/04/03 01:32:14;;;;;;;1.90;0.93;;;0.70;99.90;;;;;;5004592;28;20161;-79
2022/04/03 01:34:40;;;;;;;1.98;0.90;;;0.70;99.90;;;;;;5010073;28;20057;-78
2022/04/03 01:37:06;;;;;;;2.20;1.02;;;0.80;99.90;;;;;;4992595;28;20045;-79
2022/04/03 01:39:32;;;;;;;2.38;1.00;;;2.60;99.90;;;;;;5023931;28;20058;-78
2022/04/03 01:41:58;;;;;;;2.50;0.93;;;1.80;99.90;;;;;;5010144;28;20045;-78
2022/04/03 01:44:23;;;;;;;1.90;0.90;;;1.50;99.90;;;;;;5009474;28;20057;-78
2022/04/03 01:46:49;;;;;;;2.70;0.90;;;2.20;99.90;;;;;;5008794;28;20038;-78
2022/04/03 01:49:15;;;;;;;1.75;0.85;;;1.00;99.90;;;;;;5008498;28;20050;-79
2022/04/03 01:51:41;;;;;;;4.70;1.20;;;1.00;99.90;;;;;;4983919;28;20119;-78
2022/04/03 01:54:07;;;;;;;1.58;0.90;;;2.20;99.90;;;;;;4992584;28;20046;-78
2022/04/03 01:56:34;;;;;;;1.10;0.90;;;1.40;99.90;;;;;;4991790;28;20053;-78
2022/04/03 01:59:01;;;;;;;2.05;1.00;;;1.80;99.90;;;;;;4975682;28;20046;-78
2022/04/03 02:01:32;;;;;;;1.75;0.80;;;2.40;99.90;;;;;;4992373;28;20046;-78
2022/04/03 02:03:58;;;;;;;1.58;0.93;;;1.00;99.90;;;;;;5025837;28;20100;-78
2022/04/03 02:06:24;;;;;;;3.05;0.93;;;1.10;99.90;;;;;;5008156;28;20056;-78
2022/04/03 02:08:50;;;;;;;1.60;1.00;;;1.10;99.90;;;;;;4970062;28;20046;-79
2022/04/03 02:11:15;;;;;;;1.67;0.90;;;1.00;99.90;;;;;;4993123;28;20042;-79
2022/04/03 02:13:42;;;;;;;2.20;0.80;;;2.00;99.90;;;;;;4992096;28;20077;-79
2022/04/03 02:16:09;;;;;;;1.40;0.80;;;1.00;99.90;;;;;;5008302;28;20185;-78
2022/04/03 02:18:36;;;;;;;1.20;0.80;;;1.00;99.90;;;;;;4991999;28;20081;-79
2022/04/03 02:21:01;;;;;;;1.58;1.05;;;0.90;99.90;;;;;;5001043;28;20047;-77
2022/04/03 02:23:27;;;;;;;3.63;1.00;;;2.30;99.90;;;;;;5007437;28;20053;-77
2022/04/03 02:25:53;;;;;;;1.50;0.73;;;2.00;99.90;;;;;;5004997;28;20053;-77
2022/04/03 02:28:20;;;;;;;3.72;1.00;;;2.30;99.90;;;;;;4992348;28;20446;-77
2022/04/03 02:30:45;;;;;;;2.05;0.93;;;0.90;99.90;;;;;;4993286;28;20165;-77
2022/04/03 02:33:11;;;;;;;1.75;0.75;;;0.90;99.90;;;;;;4961007;28;20121;-76
2022/04/03 02:35:37;;;;;;;1.35;0.80;;;1.90;99.90;;;;;;5026715;28;20033;-77
2022/04/03 02:38:03;;;;;;;3.25;1.00;;;0.90;99.90;;;;;;4959375;28;20064;-77
2022/04/03 02:40:28;;;;;;;4.35;0.90;;;0.90;99.90;;;;;;4975688;28;20042;-77
2022/04/03 02:42:54;;;;;;;2.40;0.90;;;1.70;99.90;;;;;;5006621;28;20050;-76
2022/04/03 02:45:20;;;;;;;3.38;0.80;;;2.00;99.90;;;;;;4982185;28;20056;-77
2022/04/03 02:47:55;;;;;;;2.35;0.82;;;0.90;99.90;;;;;;4973801;28;20499;-76
2022/04/03 02:50:22;;;;;;;1.77;0.60;;;2.10;99.90;;;;;;4991713;28;20058;-77
2022/04/03 02:52:49;;;;;;;2.60;0.77;;;0.90;99.90;;;;;;4984151;28;20050;-77
2022/04/03 02:55:19;;;;;;;2.00;0.70;;;0.90;99.90;;;;;;5006044;28;20049;-76
2022/04/03 02:57:45;;;;;;;1.38;0.90;;;0.90;99.90;;;;;;4983077;28;20053;-76
2022/04/03 03:00:14;;;;;;;1.23;0.70;;;0.90;99.90;;;;;;5005815;28;20053;-75
2022/04/03 03:02:44;;;;;;;2.40;0.95;;;0.80;99.90;;;;;;4973182;28;20300;-76
2022/04/03 03:05:12;;;;;;;1.65;0.77;;;1.00;99.90;;;;;;5005108;28;20499;-76
2022/04/03 03:07:39;;;;;;;1.38;0.98;;;0.80;99.90;;;;;;5003617;28;20404;-77
2022/04/03 03:10:06;;;;;;;3.13;0.90;;;0.80;99.90;;;;;;4987991;28;20056;-77
2022/04/03 03:12:32;;;;;;;3.85;1.10;;;0.80;99.90;;;;;;5007123;28;20060;-79
2022/04/03 03:14:58;;;;;;;1.58;0.80;;;2.00;99.90;;;;;;4991728;28;20057;-79
2022/04/03 03:17:23;;;;;;;2.78;0.80;;;0.80;99.90;;;;;;4959169;28;20060;-79
2022/04/03 03:19:49;;;;;;;1.92;0.70;;;1.20;99.90;;;;;;5007382;28;20030;-79
2022/04/03 03:22:15;;;;;;;2.80;1.00;;;1.00;99.90;;;;;;4983196;28;20042;-78
2022/04/03 03:24:41;;;;;;;1.02;0.70;;;2.50;99.90;;;;;;4967794;28;20052;-79
2022/04/03 03:27:07;;;;;;;1.25;0.60;;;1.50;99.90;;;;;;5005794;28;20049;-79
2022/04/03 03:29:33;;;;;;;1.67;0.68;;;3.00;99.90;;;;;;4981559;28;20054;-79
2022/04/03 03:31:58;;;;;;;3.55;0.77;;;2.70;99.90;;;;;;5008872;28;20045;-79
2022/04/03 03:34:24;;;;;;;3.13;1.10;;;2.20;99.90;;;;;;4982611;28;20058;-79
2022/04/03 03:36:50;;;;;;;1.85;0.70;;;1.90;99.90;;;;;;4997991;28;20077;-79
2022/04/03 03:39:16;;;;;;;1.40;0.82;;;2.80;99.90;;;;;;4989765;28;20046;-79
2022/04/03 03:41:43;;;;;;;3.22;0.77;;;1.80;99.90;;;;;;4974224;28;20038;-79
2022/04/03 03:44:12;;;;;;;2.58;0.75;;;1.80;99.90;;;;;;5023451;28;20046;-79
2022/04/03 03:46:39;;;;;;;1.50;0.70;;;3.00;99.90;;;;;;5005757;28;20537;-79
2022/04/03 03:49:06;;;;;;;1.60;0.85;;;2.20;99.90;;;;;;5006615;28;20049;-79
2022/04/03 03:51:33;;;;;;;1.30;0.65;;;2.00;99.90;;;;;;5005949;28;20457;-79
2022/04/03 03:53:59;;;;;;;1.70;0.80;;;2.80;99.90;;;;;;4964789;28;20368;-79
2022/04/03 03:56:24;;;;;;;2.58;0.90;;;1.50;99.90;;;;;;4958292;28;20052;-79
2022/04/03 03:58:50;;;;;;;1.65;0.82;;;2.90;99.90;;;;;;5006164;28;20184;-79
2022/04/03 04:01:16;;;;;;;1.13;0.70;;;3.20;99.90;;;;;;5006473;28;20498;-79
2022/04/03 04:03:42;;;;;;;2.45;0.90;;;1.40;99.90;;;;;;5006091;28;20042;-79
2022/04/03 04:06:07;;;;;;;2.03;0.90;;;2.00;99.90;;;;;;5005293;28;20491;-79
2022/04/03 04:08:33;;;;;;;1.92;0.80;;;1.90;99.90;;;;;;5002851;28;20057;-79
2022/04/03 04:10:59;;;;;;;2.42;1.10;;;1.80;99.90;;;;;;4989461;28;20125;-77
2022/04/03 04:13:24;;;;;;;1.90;0.80;;;2.60;99.90;;;;;;5004912;28;20049;-78
2022/04/03 04:15:50;;;;;;;2.88;0.93;;;1.30;99.90;;;;;;4982109;28;20064;-76
2022/04/03 04:18:16;;;;;;;1.80;0.90;;;1.20;99.90;;;;;;5017850;28;20054;-77
2022/04/03 04:20:42;;;;;;;2.53;0.82;;;2.60;99.90;;;;;;4974376;28;20065;-77
2022/04/03 04:23:09;;;;;;;1.83;0.80;;;1.20;99.90;;;;;;4992830;28;20049;-77
2022/04/03 04:25:35;;;;;;;1.42;0.80;;;1.20;99.90;;;;;;4993924;28;20050;-77
2022/04/03 04:28:01;;;;;;;2.40;0.90;;;1.20;99.90;;;;;;5009750;28;20073;-77
2022/04/03 04:30:27;;;;;;;2.85;0.68;;;1.20;99.90;;;;;;4993874;28;20495;-77
2022/04/03 04:32:53;;;;;;;2.22;0.70;;;2.00;99.90;;;;;;5010805;28;20061;-77
2022/04/03 04:35:19;;;;;;;2.92;0.80;;;2.70;99.90;;;;;;5004796;28;20054;-78
2022/04/03 04:37:44;;;;;;;3.05;1.00;;;1.30;99.90;;;;;;4967888;28;20037;-77
2022/04/03 04:40:11;;;;;;;2.15;1.10;;;2.10;99.90;;;;;;4978001;28;20386;-77
2022/04/03 04:42:38;;;;;;;1.27;0.80;;;1.90;99.90;;;;;;4993536;28;20056;-77
2022/04/03 04:45:04;;;;;;;1.35;0.77;;;2.50;99.90;;;;;;4993960;28;20125;-77
2022/04/03 04:47:35;;;;;;;2.15;0.70;;;1.70;99.90;;;;;;5009846;28;20042;-78
2022/04/03 04:50:01;;;;;;;1.50;0.70;;;3.10;99.90;;;;;;5009856;28;20578;-77
2022/04/03 04:52:28;;;;;;;2.10;0.80;;;2.00;99.90;;;;;;5006117;28;20128;-77
2022/04/03 04:54:54;;;;;;;3.63;0.88;;;2.00;99.90;;;;;;4978488;28;20451;-79
2022/04/03 04:57:19;;;;;;;2.05;0.88;;;2.80;99.90;;;;;;4993233;28;20136;-79
2022/04/03 04:59:45;;;;;;;2.00;0.75;;;2.00;99.90;;;;;;4967871;28;20636;-79
2022/04/03 05:02:11;;;;;;;2.92;0.85;;;2.40;99.90;;;;;;5001430;28;20340;-79
2022/04/03 05:04:37;;;;;;;1.92;0.90;;;2.60;99.90;;;;;;4993240;28;20081;-78
2022/04/03 05:07:03;;;;;;;1.45;0.90;;;2.10;99.90;;;;;;4978625;28;21258;-78
2022/04/03 05:09:31;;;;;;;9.98;1.70;;;2.10;99.90;;;;;;4992591;28;20046;-79
2022/04/03 05:11:57;;;;;;;4.40;1.02;;;2.10;99.90;;;;;;4994344;28;20044;-79
2022/04/03 05:14:24;;;;;;;1.92;0.80;;;2.10;99.90;;;;;;5000974;28;20181;-79
2022/04/03 05:16:50;;;;;;;1.92;1.00;;;2.10;99.90;;;;;;4991689;28;20129;-79
2022/04/03 05:19:16;;;;;;;2.00;0.90;;;2.20;99.90;;;;;;5004139;28;20858;-78
2022/04/03 05:21:42;;;;;;;2.38;0.80;;;2.20;99.90;;;;;;4975082;28;20065;-78
2022/04/03 05:24:08;;;;;;;2.47;1.00;;;2.20;99.90;;;;;;5005331;28;20049;-78
2022/04/03 05:26:34;;;;;;;3.22;1.00;;;2.30;99.90;;;;;;5004674;28;20501;-78
2022/04/03 05:29:00;;;;;;;3.83;1.05;;;2.30;99.90;;;;;;4991492;28;20046;-79
2022/04/03 05:31:26;;;;;;;1.52;0.82;;;2.40;99.90;;;;;;5005619;28;20068;-78
2022/04/03 05:33:55;;;;;;;2.25;0.68;;;2.60;99.90;;;;;;4969722;28;20050;-76
2022/04/03 05:36:21;;;;;;;3.83;0.88;;;2.60;99.90;;;;;;4974982;28;20117;-79
2022/04/03 05:38:48;;;;;;;4.60;1.05;;;2.70;99.90;;;;;;5003934;28;20045;-79
2022/04/03 05:41:14;;;;;;;2.90;1.13;;;2.70;99.90;;;;;;5024100;28;20046;-78
2022/04/03 05:43:40;;;;;;;3.65;0.98;;;3.00;99.90;;;;;;4975028;28;20050;-78
2022/04/03 05:46:07;;;;;;;6.90;1.30;;;2.70;99.90;;;;;;5004981;28;20092;-78
2022/04/03 05:48:33;;;;;;;3.47;0.77;;;4.40;99.90;;;;;;5002634;28;20050;-79
2022/04/03 05:50:58;;;;;;;4.13;0.80;;;3.20;99.90;;;;;;5004680;28;20096;-78
2022/04/03 05:53:25;;;;;;;3.47;0.80;;;2.60;99.90;;;;;;4991520;28;20054;-77
2022/04/03 05:55:54;;;;;;;1.95;0.90;;;2.60;99.90;;;;;;5007136;28;20038;-77
2022/04/03 05:58:19;;;;;;;3.95;0.70;;;3.50;99.90;;;;;;4990282;28;20046;-78
2022/04/03 06:00:45;;;;;;;3.97;0.90;;;2.50;99.90;;;;;;4981038;28;20049;-78
2022/04/03 06:03:11;;;;;;;4.05;0.80;;;2.50;99.90;;;;;;5023265;28;20136;-77
2022/04/03 06:05:40;;;;;;;6.65;0.98;;;2.50;99.90;;;;;;5004761;28;20046;-78
2022/04/03 06:08:06;;;;;;;3.35;0.95;;;2.50;99.90;;;;;;5005837;28;20137;-78
2022/04/03 06:10:34;;;;;;;1.65;0.85;;;2.50;99.90;;;;;;4987595;28;20058;-77
2022/04/03 06:13:08;;;;;;;3.20;0.73;;;2.60;99.90;;;;;;4989723;28;20065;-77
2022/04/03 06:15:43;;;;;;;0.90;0.70;;;2.60;99.90;;;;;;4989034;28;20149;-78
2022/04/03 06:18:15;;;;;;;3.67;0.95;;;2.70;99.90;;;;;;4987389;28;20049;-77
2022/04/03 06:20:41;;;;;;;2.60;0.77;;;2.70;99.90;;;;;;4987466;28;20042;-78
2022/04/03 06:23:12;;;;;;;4.50;0.85;;;2.80;99.90;;;;;;4991442;28;20088;-78
2022/04/03 06:25:38;;;;;;;3.90;0.90;;;3.20;99.90;;;;;;5007033;28;20112;-77
2022/04/03 06:28:04;;;;;;;5.93;1.27;;;3.50;99.90;;;;;;4990727;28;20042;-77
2022/04/03 06:30:30;;;;;;;3.28;1.13;;;3.20;99.90;;;;;;4991892;28;20835;-77
2022/04/03 06:32:56;;;;;;;2.22;1.30;;;3.40;99.90;;;;;;4974051;28;20112;-77
2022/04/03 06:35:22;;;;;;;1.70;0.80;;;3.50;99.90;;;;;;4992892;28;20050;-77
2022/04/03 06:37:48;;;;;;;1.92;0.98;;;3.60;99.90;;;;;;4983555;28;20085;-77
2022/04/03 06:40:13;;;;;;;1.13;0.82;;;3.60;99.90;;;;;;4976146;28;20053;-78
2022/04/03 06:42:40;;;;;;;1.27;0.75;;;3.70;99.90;;;;;;5005946;28;20061;-77
2022/04/03 06:45:06;;;;;;;1.38;0.70;;;4.30;99.90;;;;;;4991058;28;20054;-78
2022/04/03 06:47:32;;;;;;;2.75;0.93;;;3.80;99.90;;;;;;5008539;28;20052;-78
2022/04/03 06:49:58;;;;;;;0.77;0.60;;;3.90;99.90;;;;;;4992510;28;20053;-77
2022/04/03 06:52:25;;;;;;;5.20;0.82;;;4.00;99.90;;;;;;4992283;28;20084;-77
2022/04/03 06:54:51;;;;;;;2.25;0.60;;;4.00;99.90;;;;;;4991545;28;20820;-77
2022/04/03 06:57:18;;;;;;;3.65;0.70;;;4.10;99.90;;;;;;4983356;28;20061;-77
2022/04/03 06:59:44;;;;;;;1.00;0.80;;;4.50;99.90;;;;;;5005045;28;20086;-78
2022/04/03 07:02:10;;;;;;;3.85;0.70;;;4.20;99.90;;;;;;5003655;28;20159;-77
2022/04/03 07:04:36;;;;;;;1.65;0.80;;;4.20;99.90;;;;;;4988386;28;20482;-79
2022/04/03 07:07:03;;;;;;;3.00;0.80;;;4.20;99.90;;;;;;5006611;28;20045;-77
2022/04/03 07:09:29;;;;;;;1.95;0.60;;;4.30;99.90;;;;;;4990049;28;20132;-78
2022/04/03 07:11:55;;;;;;;1.92;0.80;;;5.20;99.90;;;;;;4981387;28;21251;-78
2022/04/03 07:14:22;;;;;;;1.42;0.70;;;4.60;99.90;;;;;;4991287;28;20069;-78
2022/04/03 07:16:48;;;;;;;2.30;0.80;;;5.60;99.90;;;;;;4973310;28;20054;-78
2022/04/03 07:19:14;;;;;;;1.33;0.77;;;4.80;99.90;;;;;;5005902;28;20582;-78
2022/04/03 07:21:40;;;;;;;1.75;0.90;;;4.70;99.90;;;;;;4989284;28;20546;-78
2022/04/03 07:24:06;;;;;;;2.65;0.75;;;4.80;99.90;;;;;;4971958;28;20049;-78
2022/04/03 07:26:33;;;;;;;3.50;0.80;;;4.90;99.90;;;;;;4989702;28;20876;-77
2022/04/03 07:28:59;;;;;;;1.02;0.77;;;5.00;99.90;;;;;;5022221;28;20045;-78
2022/04/03 07:31:25;;;;;;;3.10;0.70;;;5.20;99.90;;;;;;4987901;28;20090;-79
2022/04/03 07:33:52;;;;;;;2.03;0.80;;;5.40;99.90;;;;;;5004679;28;20168;-78
2022/04/03 07:36:18;;;;;;;2.35;0.70;;;5.50;99.90;;;;;;5004374;28;20120;-78
2022/04/03 07:38:43;;;;;;;2.95;0.75;;;5.60;99.90;;;;;;5000698;28;20132;-79
2022/04/03 07:41:09;;;;;;;2.58;0.75;;;5.90;99.90;;;;;;4967464;28;20046;-78
2022/04/03 07:43:35;;;;;;;1.55;0.75;;;5.90;99.90;;;;;;4989299;28;20045;-80
2022/04/03 07:46:01;;;;;;;2.75;1.13;;;6.00;99.90;;;;;;4971453;28;20542;-78
2022/04/03 07:48:27;;;;;;;2.63;0.98;;;6.10;99.90;;;;;;4989189;28;20320;-78
2022/04/03 07:50:53;;;;;;;6.25;1.02;;;6.10;99.90;;;;;;4989690;28;20045;-78
2022/04/03 07:53:20;;;;;;;1.20;0.60;;;6.20;99.90;;;;;;5003531;28;20132;-79
2022/04/03 07:55:45;;;;;;;2.92;0.80;;;6.30;99.90;;;;;;5002175;28;20049;-79
2022/04/03 07:58:12;;;;;;;3.00;0.77;;;7.20;99.90;;;;;;4995925;28;20045;-79
2022/04/03 08:00:37;;;;;;;1.85;0.77;;;6.40;99.90;;;;;;5000193;28;20176;-80
2022/04/03 08:03:03;;;;;;;1.60;0.98;;;6.40;99.90;;;;;;4989189;28;20136;-79
2022/04/03 08:05:29;;;;;;;1.65;0.80;;;6.50;99.90;;;;;;5001904;28;20057;-79
2022/04/03 08:07:58;;;;;;;2.47;0.80;;;6.60;99.90;;;;;;4992494;28;20521;-79
2022/04/03 08:10:24;;;;;;;2.90;0.80;;;6.60;99.90;;;;;;4962684;28;20099;-78
2022/04/03 08:12:51;;;;;;;2.05;0.90;;;6.50;99.90;;;;;;5002785;28;20097;-78
2022/04/03 08:15:19;;;;;;;1.85;0.80;;;6.50;99.90;;;;;;4988400;28;20072;-77
2022/04/03 08:17:45;;;;;;;1.92;0.90;;;7.60;99.90;;;;;;5000423;28;20133;-78
2022/04/03 08:20:16;;;;;;;1.63;0.70;;;6.30;99.90;;;;;;5005373;28;20041;-77
2022/04/03 08:22:42;;;;;;;2.20;0.88;;;6.30;99.90;;;;;;5002448;28;20057;-77
2022/04/03 08:25:09;;;;;;;1.15;0.60;;;6.30;99.90;;;;;;4979076;28;20136;-78
2022/04/03 08:27:48;;;;;;;3.50;1.05;;;6.30;99.90;;;;;;5005126;28;20563;-78
2022/04/03 08:30:26;;;;;;;1.13;0.70;;;6.20;99.90;;;;;;5003175;28;20057;-79
2022/04/03 08:32:53;;;;;;;0.77;0.70;;;6.20;99.90;;;;;;4987189;28;20403;-77
2022/04/03 08:35:20;;;;;;;1.67;0.70;;;6.20;99.90;;;;;;4993496;28;20038;-78
2022/04/03 08:37:46;;;;;;;1.30;0.90;;;6.20;99.90;;;;;;4976712;28;20124;-77
2022/04/03 08:40:13;;;;;;;1.25;0.82;;;6.20;99.90;;;;;;5021538;28;20077;-77
2022/04/03 08:42:40;;;;;;;3.22;0.85;;;6.30;99.90;;;;;;4962813;28;20119;-78
2022/04/03 08:45:11;;;;;;;0.68;0.60;;;6.60;99.90;;;;;;4987738;28;20053;-79
2022/04/03 08:48:00;;;;;;;1.75;0.73;;;6.90;99.90;;;;;;4994438;28;20168;-78
2022/04/03 08:50:34;;;;;;;2.28;0.70;;;7.30;99.90;;;;;;5000609;28;20065;-78
2022/04/03 08:53:02;;;;;;;1.48;0.65;;;7.50;99.90;;;;;;4999849;28;20046;-78
2022/04/03 08:55:29;;;;;;;2.22;0.60;;;7.70;99.90;;;;;;4986999;28;20444;-78
2022/04/03 08:57:56;;;;;;;1.75;0.68;;;7.90;99.90;;;;;;4987510;28;20042;-77
2022/04/03 09:00:22;;;;;;;1.40;0.70;;;8.20;99.90;;;;;;4988556;28;20141;-77
2022/04/03 09:02:49;;;;;;;1.48;0.63;;;8.50;99.90;;;;;;5002646;28;20432;-78
2022/04/03 09:05:16;;;;;;;1.52;0.60;;;8.80;99.90;;;;;;5004844;28;20107;-77
2022/04/03 09:07:43;;;;;;;2.15;0.60;;;9.10;99.90;;;;;;5003591;28;20053;-79
2022/04/03 09:10:16;;;;;;;0.90;0.50;;;9.30;99.90;;;;;;4959699;28;20054;-78
2022/04/03 09:12:50;;;;;;;1.23;0.60;;;9.40;99.90;;;;;;5006784;28;20414;-78
2022/04/03 09:15:21;;;;;;;1.58;0.70;;;9.60;99.90;;;;;;5005251;28;20526;-78
2022/04/03 09:17:49;;;;;;;1.67;0.80;;;9.80;99.90;;;;;;4987184;28;20057;-78
2022/04/03 09:20:20;;;;;;;1.05;0.70;;;9.90;99.90;;;;;;4990561;28;20073;-79
2022/04/03 09:22:54;;;;;;;3.88;0.80;;;9.80;99.90;;;;;;4990725;28;20100;-83
2022/04/03 09:25:40;;;;;;;0.88;0.60;;;10.00;99.90;;;;;;4995357;28;20044;-83
2022/04/03 09:28:09;;;;;;;4.43;0.90;;;9.70;99.90;;;;;;5008253;28;20045;-82
2022/04/03 09:30:39;;;;;;;1.40;0.70;;;9.50;99.90;;;;;;5002571;28;20052;-79
2022/04/03 09:33:07;;;;;;;3.20;0.95;;;9.70;99.90;;;;;;4972424;28;20054;-78
2022/04/03 09:35:59;;;;;;;1.33;0.63;;;9.50;99.90;;;;;;5010144;28;20108;-80
2022/04/03 09:38:28;;;;;;;0.88;0.70;;;9.80;99.90;;;;;;5009816;28;20058;-78
2022/04/03 09:40:55;;;;;;;1.77;0.70;;;9.60;99.90;;;;;;5006417;28;20053;-80
2022/04/03 09:43:31;;;;;;;2.35;0.80;;;9.40;99.90;;;;;;5010061;28;20042;-80
2022/04/03 09:45:59;;;;;;;1.95;0.80;;;9.80;99.90;;;;;;4993755;28;20458;-82
2022/04/03 09:48:26;;;;;;;3.83;0.77;;;9.80;99.90;;;;;;4992878;28;20064;-77
2022/04/03 09:50:55;;;;;;;2.47;1.05;;;9.90;99.90;;;;;;4992855;28;20049;-78
2022/04/03 09:53:21;;;;;;;2.63;0.60;;;10.10;99.90;;;;;;5008121;28;20133;-78
2022/04/03 09:55:46;;;;;;;2.92;0.73;;;10.00;99.90;;;;;;4993888;28;20121;-76
2022/04/03 09:58:12;;;;;;;3.08;0.80;;;9.80;99.90;;;;;;5008480;28;20442;-77
2022/04/03 10:00:41;;;;;;;2.17;0.90;;;10.00;99.90;;;;;;5008122;28;20137;-77
2022/04/03 10:03:10;;;;;;;2.90;1.05;;;10.20;99.90;;;;;;5007322;28;20041;-77
2022/04/03 10:05:36;;;;;;;3.47;0.80;;;10.20;99.90;;;;;;4992627;28;20048;-77
2022/04/03 10:08:04;;;;;;;1.85;0.68;;;9.90;99.90;;;;;;5007045;28;20050;-77
2022/04/03 10:10:35;;;;;;;2.85;0.80;;;9.90;99.90;;;;;;5007967;28;20081;-77
2022/04/03 10:13:02;;;;;;;3.15;0.70;;;9.80;99.90;;;;;;5008239;28;20054;-78
2022/04/03 10:15:29;;;;;;;2.58;0.73;;;9.70;99.90;;;;;;5007777;28;20062;-78
2022/04/03 10:17:55;;;;;;;1.60;0.70;;;10.00;99.90;;;;;;4974746;28;20061;-77
2022/04/03 10:20:28;;;;;;;1.30;0.60;;;10.30;99.90;;;;;;5006601;28;20498;-77
2022/04/03 10:22:59;;;;;;;1.17;0.60;;;10.50;99.90;;;;;;5007262;28;20067;-77
2022/04/03 10:25:28;;;;;;;1.55;0.70;;;10.50;99.90;;;;;;5008283;28;20565;-77
2022/04/03 10:27:58;;;;;;;3.42;1.05;;;10.50;99.90;;;;;;4990989;28;20049;-77
2022/04/03 10:31:00;;;;;;;4.50;0.70;;;10.40;99.90;;;;;;4991939;28;20057;-77
2022/04/03 10:33:36;;;;;;;2.78;1.10;;;10.50;99.90;;;;;;4993034;28;20053;-77
2022/04/03 10:36:03;;;;;;;;;;;10.60;99.90;;;;;;5008269;28;20076;-77
2022/04/03 10:38:44;;;;;;;2.33;0.73;;;10.50;99.90;;;;;;5007105;28;19925;-77
2022/04/03 10:41:30;;;;;;;2.47;0.90;;;10.40;99.90;;;;;;4991301;28;20057;-76
2022/04/03 10:44:18;;;;;;;2.13;0.87;;;10.50;99.90;;;;;;5023885;28;20053;-77
2022/04/03 10:47:02;;;;;;;2.15;0.80;;;10.90;99.90;;;;;;5008599;28;20061;-77
2022/04/03 10:49:37;;;;;;;1.80;0.75;;;11.30;99.90;;;;;;4991315;28;20661;-77
2022/04/03 10:52:04;;;;;;;3.80;0.93;;;11.60;99.90;;;;;;4992318;28;20458;-77
2022/04/03 10:54:31;;;;;;;0.95;0.60;;;12.00;99.90;;;;;;4992242;28;20049;-77
2022/04/03 10:57:31;;;;;;;2.75;1.00;;;12.20;99.90;;;;;;4982655;28;20137;-77
2022/04/03 11:00:12;;;;;;;1.67;0.70;;;12.30;99.90;;;;;;4990543;28;20129;-77
2022/04/03 11:02:52;;;;;;;1.38;0.57;;;12.50;99.90;;;;;;5008187;28;20057;-77
2022/04/03 11:05:27;;;;;;;2.85;0.60;;;12.70;99.90;;;;;;5008236;28;20085;-77
2022/04/03 11:08:12;;;;;;;2.85;0.90;;;13.10;99.90;;;;;;5007898;28;20058;-78
2022/04/03 11:10:54;;;;;;;3.37;0.70;;;13.40;99.90;;;;;;5024200;28;20046;-77
2022/04/03 11:13:37;;;;;;;1.88;0.80;;;13.40;99.90;;;;;;5007141;28;20097;-77
2022/04/03 11:16:08;;;;;;;1.23;0.80;;;13.60;99.90;;;;;;4983185;28;20060;-78
2022/04/03 11:18:47;;;;;;;3.28;0.95;;;14.00;99.90;;;;;;4990805;28;20116;-78
2022/04/03 11:21:23;;;;;;;0.70;0.57;;;14.00;99.90;;;;;;5008523;28;20060;-77
2022/04/03 11:24:03;;;;;;;2.60;0.70;;;14.20;99.90;;;;;;4990761;28;20046;-79
2022/04/03 11:26:30;;;;;;;2.47;0.80;;;14.20;99.80;;;;;;5007809;28;20049;-77
2022/04/03 11:28:56;;;;;;;1.10;0.70;;;14.10;99.30;;;;;;4991314;28;20395;-78
2022/04/03 11:31:22;;;;;;;2.22;0.77;;;13.50;99.30;;;;;;4991388;28;20057;-77
2022/04/03 11:33:48;;;;;;;2.05;0.52;;;14.20;99.30;;;;;;5008002;28;20151;-79
2022/04/03 11:36:17;;;;;;;1.77;0.60;;;14.00;98.30;;;;;;4991026;28;20042;-77
2022/04/03 11:38:47;;;;;;;1.65;0.80;;;13.80;98.30;;;;;;5006200;28;20061;-78
2022/04/03 11:41:27;;;;;;;2.13;0.60;;;14.00;98.70;;;;;;5006144;28;20633;-79
2022/04/03 11:44:09;;;;;;;1.15;0.60;;;14.10;98.30;;;;;;5007086;28;20909;-79
2022/04/03 11:46:42;;;;;;;0.93;0.52;;;14.20;97.40;;;;;;4991063;28;20041;-79
2022/04/03 11:49:16;;;;;;;1.63;0.70;;;14.20;97.60;;;;;;4988713;28;20085;-79
2022/04/03 11:51:44;;;;;;;1.48;0.80;;;14.10;97.70;;;;;;5006846;28;20119;-79
2022/04/03 11:54:10;;;;;;;2.58;0.70;;;14.00;97.80;;;;;;5006718;28;20050;-79
2022/04/03 11:56:37;;;;;;;1.15;0.70;;;14.10;98.20;;;;;;4990869;28;20080;-79
2022/04/03 11:59:05;;;;;;;1.15;0.52;;;14.40;97.80;;;;;;4984419;28;20057;-77
2022/04/03 12:01:36;;;;;;;1.98;0.70;;;14.70;97.60;;;;;;5007616;28;20049;-76
2022/04/03 12:04:13;;;;;;;2.90;0.80;;;14.60;96.80;;;;;;5006736;28;20045;-76
2022/04/03 12:06:41;;;;;;;2.60;0.82;;;14.50;96.70;;;;;;4990864;28;20077;-76
2022/04/03 12:09:09;;;;;;;0.90;0.45;;;14.70;97.30;;;;;;4989604;28;20158;-76
2022/04/03 12:11:35;;;;;;;2.60;0.70;;;14.90;97.20;;;;;;5007358;28;20460;-77
2022/04/03 12:14:03;;;;;;;2.75;1.10;;;15.00;97.00;;;;;;5006186;28;20046;-77
2022/04/03 12:16:39;;;;;;;2.05;0.70;;;15.10;96.50;;;;;;5007056;28;20475;-77
2022/04/03 12:19:10;;;;;;;2.08;0.68;;;15.00;96.10;;;;;;4990563;28;20057;-77
2022/04/03 12:21:44;;;;;;;2.08;0.70;;;14.80;96.20;;;;;;5024012;28;20057;-79
2022/04/03 12:24:11;;;;;;;2.80;1.00;;;14.90;95.20;;;;;;5006706;28;20054;-79
2022/04/03 12:26:38;;;;;;;4.97;0.77;;;14.50;94.90;;;;;;5023156;28;20092;-78
2022/04/03 12:29:07;;;;;;;3.42;1.00;;;14.40;95.60;;;;;;4983145;28;20058;-79
2022/04/03 12:31:34;;;;;;;1.88;0.70;;;14.30;95.60;;;;;;5006687;28;20529;-79
2022/04/03 12:34:15;;;;;;;2.15;0.70;;;14.50;95.10;;;;;;4974651;28;20056;-79
2022/04/03 12:36:49;;;;;;;2.28;0.68;;;14.80;93.80;;;;;;4989764;28;20523;-79
2022/04/03 12:39:28;;;;;;;1.65;0.63;;;14.90;93.80;;;;;;5006247;28;20519;-79
2022/04/03 12:41:54;;;;;;;3.63;0.88;;;15.20;93.80;;;;;;4990199;28;20057;-80
2022/04/03 12:44:20;;;;;;;2.08;0.70;;;15.10;93.10;;;;;;5009364;28;20200;-79
2022/04/03 12:46:46;;;;;;;2.55;0.57;;;15.30;92.80;;;;;;4994735;28;20497;-79
2022/04/03 12:49:20;;;;;;;2.63;0.75;;;15.20;92.10;;;;;;4994043;28;20994;-79
2022/04/03 12:51:47;;;;;;;1.35;0.88;;;15.60;92.30;;;;;;5009668;28;20053;-77
2022/04/03 12:54:13;;;;;;;2.38;0.70;;;15.70;91.90;;;;;;4993639;28;20432;-77
2022/04/03 12:59:24;;;;;;;2.58;0.70;;;16.40;90.60;;;;;;5007846;28;20068;-78
2022/04/03 13:01:53;;;;;;;1.98;0.75;;;16.40;87.10;;;;;;4994599;28;20137;-78
2022/04/03 13:04:31;;;;;;;1.33;0.57;;;16.50;84.80;;;;;;4995021;28;20049;-78